createdAt,value
2023-10-11T00:00:47.418Z,100.00
2023-10-11T00:03:19.410Z,100.00
2023-10-11T00:05:49.546Z,100.00
2023-10-11T00:08:20.087Z,100.00
2023-10-11T00:10:51.222Z,100.00
2023-10-11T00:13:20.053Z,100.00
2023-10-11T00:15:51.580Z,99.25
2023-10-11T00:18:20.343Z,99.85
2023-10-11T00:20:51.849Z,100.00
2023-10-11T00:23:23.794Z,100.00
2023-10-11T00:25:53.223Z,100.00
2023-10-11T00:28:24.853Z,100.00
2023-10-11T00:30:57.104Z,100.00
2023-10-11T00:33:37.572Z,100.00
2023-10-11T00:36:06.338Z,100.00
2023-10-11T00:38:44.478Z,100.00
2023-10-11T00:41:18.780Z,100.00
2023-10-11T00:43:51.206Z,100.00
2023-10-11T00:46:23.713Z,100.00
2023-10-11T00:48:56.624Z,100.00
2023-10-11T00:51:28.315Z,100.00
2023-10-11T00:53:57.261Z,100.00
2023-10-11T00:56:30.285Z,100.00
2023-10-11T00:58:58.332Z,100.00
2023-10-11T01:01:28.019Z,100.00
2023-10-11T01:03:56.784Z,100.00
2023-10-11T01:06:26.982Z,100.00
2023-10-11T01:08:55.284Z,100.00
2023-10-11T01:11:24.046Z,100.00
2023-10-11T01:13:53.139Z,100.00
2023-10-11T01:16:25.613Z,100.00
2023-10-11T01:18:55.071Z,100.00
2023-10-11T01:21:24.328Z,100.00
2023-10-11T01:23:52.131Z,100.00
2023-10-11T01:26:22.739Z,100.00
2023-10-11T01:28:52.466Z,100.00
2023-10-11T01:31:20.626Z,100.00
2023-10-11T01:33:50.615Z,100.00
2023-10-11T01:36:22.732Z,100.00
2023-10-11T01:38:52.322Z,100.00
2023-10-11T01:41:22.677Z,100.00
2023-10-11T01:43:51.963Z,100.00
2023-10-11T01:46:26.525Z,100.00
2023-10-11T01:48:55.982Z,100.00
2023-10-11T01:51:27.446Z,100.00
2023-10-11T01:53:57.883Z,100.00
2023-10-11T01:56:27.419Z,100.00
2023-10-11T01:58:58.143Z,100.00
2023-10-11T02:01:28.326Z,100.00
2023-10-11T02:04:00.833Z,100.00
2023-10-11T02:06:33.600Z,100.00
2023-10-11T02:09:03.901Z,100.00
2023-10-11T02:11:31.708Z,100.00
2023-10-11T02:14:00.486Z,100.00
2023-10-11T02:16:31.964Z,100.00
2023-10-11T02:19:01.212Z,100.00
2023-10-11T02:21:30.702Z,100.00
2023-10-11T02:24:00.155Z,100.00
2023-10-11T02:26:31.211Z,100.00
2023-10-11T02:29:01.727Z,100.00
2023-10-11T02:31:33.353Z,100.00
2023-10-11T02:34:13.981Z,100.00
2023-10-11T02:36:44.184Z,100.00
2023-10-11T02:39:19.663Z,100.00
2023-10-11T02:41:51.980Z,100.00
2023-10-11T02:44:24.270Z,100.00
2023-10-11T02:46:52.554Z,100.00
2023-10-11T02:49:24.565Z,100.00
2023-10-11T02:51:57.491Z,100.00
2023-10-11T02:54:34.943Z,100.00
2023-10-11T02:57:07.729Z,100.00
2023-10-11T02:59:38.254Z,100.00
2023-10-11T03:03:11.574Z,100.00
2023-10-11T03:05:39.347Z,100.00
2023-10-11T03:08:15.911Z,100.00
2023-10-11T03:10:46.891Z,100.00
2023-10-11T03:13:24.909Z,100.00
2023-10-11T03:15:56.007Z,100.00
2023-10-11T03:18:26.416Z,100.00
2023-10-11T03:21:09.893Z,100.00
2023-10-11T03:23:44.512Z,100.00
2023-10-11T03:26:18.073Z,100.00
2023-10-11T03:28:58.062Z,100.00
2023-10-11T03:31:28.880Z,100.00
2023-10-11T03:33:57.578Z,100.00
2023-10-11T03:36:32.313Z,100.00
2023-10-11T03:39:10.122Z,100.00
2023-10-11T03:41:45.970Z,100.00
2023-10-11T03:44:18.670Z,100.00
2023-10-11T03:46:48.643Z,100.00
2023-10-11T03:49:37.857Z,100.00
2023-10-11T03:52:06.345Z,100.00
2023-10-11T03:54:37.964Z,100.00
2023-10-11T03:57:06.942Z,100.00
2023-10-11T03:59:39.868Z,100.00
2023-10-11T04:02:11.515Z,100.00
2023-10-11T04:04:41.449Z,100.00
2023-10-11T04:07:13.754Z,100.00
2023-10-11T04:09:45.637Z,100.00
2023-10-11T04:12:14.264Z,100.00
2023-10-11T04:14:45.719Z,100.00
2023-10-11T04:17:27.543Z,100.00
2023-10-11T04:20:01.480Z,100.00
2023-10-11T04:22:32.567Z,100.00
2023-10-11T04:25:08.176Z,100.00
2023-10-11T04:27:49.230Z,100.00
2023-10-11T04:30:25.368Z,100.00
2023-10-11T04:32:57.396Z,100.00
2023-10-11T04:35:27.122Z,100.00
2023-10-11T04:38:02.618Z,100.00
2023-10-11T04:40:42.227Z,100.00
2023-10-11T04:43:21.681Z,100.00
2023-10-11T04:45:56.278Z,100.00
2023-10-11T04:48:35.173Z,100.00
2023-10-11T04:51:22.810Z,100.00
2023-10-11T04:53:58.222Z,100.00
2023-10-11T04:56:45.207Z,100.00
2023-10-11T04:59:19.049Z,100.00
2023-10-11T05:02:00.067Z,100.00
2023-10-11T05:04:33.971Z,100.00
2023-10-11T05:07:09.007Z,100.00
2023-10-11T05:09:41.274Z,100.00
2023-10-11T05:12:20.378Z,100.00
2023-10-11T05:15:02.925Z,100.00
2023-10-11T05:17:43.019Z,100.00
2023-10-11T05:20:46.226Z,100.00
2023-10-11T05:23:15.086Z,100.00
2023-10-11T05:25:57.656Z,100.00
2023-10-11T05:28:28.322Z,100.00
2023-10-11T05:31:23.613Z,100.00
2023-10-11T05:34:30.617Z,100.00
2023-10-11T05:37:15.714Z,100.00
2023-10-11T05:40:01.323Z,100.00
2023-10-11T05:42:46.464Z,100.00
2023-10-11T05:45:32.075Z,100.00
2023-10-11T05:48:19.473Z,100.00
2023-10-11T05:50:56.905Z,100.00
2023-10-11T05:53:26.976Z,100.00
2023-10-11T05:55:55.697Z,100.00
2023-10-11T05:58:23.971Z,100.00
2023-10-11T06:00:54.678Z,100.00
2023-10-11T06:03:26.252Z,100.00
2023-10-11T06:05:56.163Z,100.00
2023-10-11T06:08:25.669Z,100.00
2023-10-11T06:10:57.442Z,100.00
2023-10-11T06:13:25.256Z,100.00
2023-10-11T06:16:01.247Z,100.00
2023-10-11T06:18:44.840Z,100.00
2023-10-11T06:21:32.120Z,100.00
2023-10-11T06:24:01.073Z,100.00
2023-10-11T06:26:51.585Z,100.00
2023-10-11T06:29:24.110Z,100.00
2023-10-11T06:32:05.218Z,100.00
2023-10-11T06:34:46.432Z,100.00
2023-10-11T06:37:18.339Z,100.00
2023-10-11T06:40:04.061Z,100.00
2023-10-11T06:42:33.254Z,100.00
2023-10-11T06:45:04.615Z,100.00
2023-10-11T06:47:35.323Z,100.00
2023-10-11T06:50:12.975Z,100.00
2023-10-11T06:52:45.797Z,100.00
2023-10-11T06:55:19.620Z,100.00
2023-10-11T06:57:52.426Z,100.00
2023-10-11T07:00:26.299Z,100.00
2023-10-11T07:03:06.907Z,100.00
2023-10-11T07:05:41.743Z,100.00
2023-10-11T07:08:12.032Z,100.00
2023-10-11T07:10:46.560Z,100.00
2023-10-11T07:13:15.522Z,100.00
2023-10-11T07:15:45.148Z,100.00
2023-10-11T07:18:22.509Z,100.00
2023-10-11T07:20:59.093Z,100.00
2023-10-11T07:23:36.518Z,100.00
2023-10-11T07:26:25.129Z,100.00
2023-10-11T07:28:53.543Z,100.00
2023-10-11T07:31:22.494Z,100.00
2023-10-11T07:33:56.456Z,100.00
2023-10-11T07:36:26.448Z,100.00
2023-10-11T07:38:57.729Z,100.00
2023-10-11T07:41:29.677Z,100.00
2023-10-11T07:43:57.796Z,100.00
2023-10-11T07:46:26.320Z,100.00
2023-10-11T07:49:02.444Z,100.00
2023-10-11T07:51:31.380Z,100.00
2023-10-11T07:54:04.062Z,100.00
2023-10-11T07:56:37.090Z,100.00
2023-10-11T07:59:10.067Z,100.00
2023-10-11T08:01:44.741Z,100.00
2023-10-11T08:04:14.094Z,98.08
2023-10-11T08:06:42.433Z,98.36
2023-10-11T08:09:20.437Z,96.47
2023-10-11T08:11:54.282Z,97.01
2023-10-11T08:14:23.969Z,95.80
2023-10-11T08:16:52.503Z,94.51
2023-10-11T08:19:21.251Z,94.02
2023-10-11T08:21:55.849Z,93.39
2023-10-11T08:24:29.057Z,92.47
2023-10-11T08:27:06.991Z,91.73
2023-10-11T08:29:39.462Z,90.35
2023-10-11T08:32:14.186Z,89.86
2023-10-11T08:34:47.478Z,89.18
2023-10-11T08:37:15.917Z,88.53
2023-10-11T08:39:45.619Z,87.08
2023-10-11T08:42:16.020Z,86.72
2023-10-11T08:44:46.730Z,85.27
2023-10-11T08:47:20.464Z,85.36
2023-10-11T08:49:50.808Z,84.89
2023-10-11T08:52:23.694Z,84.20
2023-10-11T08:54:53.616Z,83.85
2023-10-11T08:57:24.784Z,84.05
2023-10-11T08:59:57.759Z,83.64
2023-10-11T09:02:28.083Z,83.10
2023-10-11T09:05:07.887Z,83.26
2023-10-11T09:07:39.695Z,82.03
2023-10-11T09:10:27.109Z,81.65
2023-10-11T09:13:01.528Z,80.45
2023-10-11T09:15:42.418Z,80.18
2023-10-11T09:18:16.533Z,80.95
2023-10-11T09:20:51.116Z,80.44
2023-10-11T09:23:22.151Z,78.82
2023-10-11T09:26:00.664Z,78.94
2023-10-11T09:28:29.185Z,78.55
2023-10-11T09:31:12.956Z,77.96
2023-10-11T09:33:42.758Z,76.81
2023-10-11T09:36:13.423Z,77.03
2023-10-11T09:38:42.005Z,75.55
2023-10-11T09:41:12.385Z,75.94
2023-10-11T09:43:45.470Z,76.30
2023-10-11T09:46:14.463Z,74.91
2023-10-11T09:48:43.482Z,73.97
2023-10-11T09:51:15.270Z,74.48
2023-10-11T09:53:50.980Z,73.32
2023-10-11T09:56:38.546Z,71.28
2023-10-11T09:59:23.492Z,71.24
2023-10-11T10:02:06.911Z,71.06
2023-10-11T10:04:58.999Z,71.06
2023-10-11T10:07:34.072Z,71.64
2023-10-11T10:10:03.610Z,70.87
2023-10-11T10:12:36.835Z,69.86
2023-10-11T10:15:10.841Z,69.95
2023-10-11T10:17:39.929Z,69.13
2023-10-11T10:20:46.375Z,67.89
2023-10-11T10:23:41.514Z,67.46
2023-10-11T10:26:39.520Z,67.12
2023-10-11T10:29:14.817Z,66.46
2023-10-11T10:32:08.481Z,66.01
2023-10-11T10:34:36.861Z,66.47
2023-10-11T10:37:10.731Z,64.91
2023-10-11T10:40:19.650Z,65.09
2023-10-11T10:43:24.943Z,63.58
2023-10-11T10:46:00.668Z,62.07
2023-10-11T10:48:32.623Z,61.99
2023-10-11T10:51:26.977Z,60.99
2023-10-11T10:53:55.290Z,63.31
2023-10-11T10:56:23.716Z,59.98
2023-10-11T10:59:03.972Z,59.32
2023-10-11T11:01:35.460Z,57.36
2023-10-11T11:04:08.049Z,57.63
2023-10-11T11:06:38.488Z,57.48
2023-10-11T11:09:14.026Z,57.99
2023-10-11T11:11:41.941Z,58.01
2023-10-11T11:14:10.643Z,57.73
2023-10-11T11:16:40.724Z,57.06
2023-10-11T11:19:17.773Z,56.67
2023-10-11T11:22:12.378Z,56.88
2023-10-11T11:24:39.624Z,56.18
2023-10-11T11:27:17.206Z,56.84
2023-10-11T11:29:51.073Z,56.05
2023-10-11T11:32:38.713Z,55.87
2023-10-11T11:35:11.087Z,54.74
2023-10-11T11:37:40.716Z,55.49
2023-10-11T11:40:25.079Z,53.21
2023-10-11T11:42:53.176Z,53.03
2023-10-11T11:45:21.585Z,52.23
2023-10-11T11:48:01.409Z,50.96
2023-10-11T11:50:32.077Z,51.23
2023-10-11T11:52:59.363Z,50.26
2023-10-11T11:55:27.334Z,49.94
2023-10-11T11:57:54.689Z,48.84
2023-10-11T12:00:39.928Z,50.09
2023-10-11T12:03:10.130Z,50.07
2023-10-11T12:05:42.096Z,49.74
2023-10-11T12:08:19.452Z,48.31
2023-10-11T12:10:48.825Z,48.17
2023-10-11T12:13:24.098Z,47.74
2023-10-11T12:15:56.033Z,47.48
2023-10-11T12:18:33.924Z,47.78
2023-10-11T12:21:12.741Z,47.08
2023-10-11T12:23:48.369Z,46.70
2023-10-11T12:26:18.228Z,47.77
2023-10-11T12:28:48.364Z,48.60
2023-10-11T12:31:18.272Z,46.69
2023-10-11T12:33:48.969Z,46.04
2023-10-11T12:36:21.618Z,47.25
2023-10-11T12:38:50.423Z,48.89
2023-10-11T12:41:18.496Z,47.43
2023-10-11T12:43:47.282Z,48.38
2023-10-11T12:46:20.121Z,47.60
2023-10-11T12:48:56.307Z,46.44
2023-10-11T12:51:25.122Z,44.83
2023-10-11T12:53:56.238Z,45.40
2023-10-11T12:56:25.160Z,46.31
2023-10-11T12:58:55.108Z,45.73
2023-10-11T13:01:37.904Z,44.21
2023-10-11T13:04:15.415Z,44.84
2023-10-11T13:06:50.700Z,44.66
2023-10-11T13:09:22.661Z,44.13
2023-10-11T13:11:50.511Z,44.46
2023-10-11T13:14:20.763Z,44.28
2023-10-11T13:16:50.437Z,45.45
2023-10-11T13:19:20.514Z,45.12
2023-10-11T13:21:48.718Z,44.90
2023-10-11T13:24:23.133Z,45.14
2023-10-11T13:26:52.774Z,45.52
2023-10-11T13:29:21.178Z,46.26
2023-10-11T13:31:50.104Z,47.18
2023-10-11T13:34:20.147Z,46.59
2023-10-11T13:36:48.079Z,46.33
2023-10-11T13:39:27.695Z,46.98
2023-10-11T13:41:57.242Z,46.40
2023-10-11T13:44:27.360Z,46.76
2023-10-11T13:46:57.012Z,46.41
2023-10-11T13:49:28.316Z,47.10
2023-10-11T13:51:59.662Z,47.07
2023-10-11T13:54:43.438Z,48.12
2023-10-11T13:57:12.864Z,47.83
2023-10-11T13:59:46.808Z,48.48
2023-10-11T14:02:35.579Z,46.72
2023-10-11T14:05:16.147Z,47.46
2023-10-11T14:07:53.403Z,47.37
2023-10-11T14:10:28.020Z,47.90
2023-10-11T14:13:01.632Z,47.68
2023-10-11T14:15:30.903Z,48.71
2023-10-11T14:18:01.215Z,47.29
2023-10-11T14:20:31.665Z,46.31
2023-10-11T14:23:04.360Z,48.14
2023-10-11T14:25:32.103Z,47.04
2023-10-11T14:27:59.922Z,47.34
2023-10-11T14:30:27.778Z,47.30
2023-10-11T14:32:55.622Z,47.41
2023-10-11T14:35:25.699Z,47.41
2023-10-11T14:37:55.053Z,48.78
2023-10-11T14:40:25.764Z,48.51
2023-10-11T14:42:53.550Z,48.51
2023-10-11T14:45:23.051Z,48.69
2023-10-11T14:47:52.053Z,49.00
2023-10-11T14:50:24.681Z,49.03
2023-10-11T14:52:54.728Z,49.59
2023-10-11T14:55:22.570Z,48.73
2023-10-11T14:57:50.870Z,49.69
2023-10-11T15:00:19.438Z,49.31
2023-10-11T15:02:48.166Z,49.29
2023-10-11T15:05:17.394Z,49.71
2023-10-11T15:07:45.220Z,50.72
2023-10-11T15:10:15.286Z,51.63
2023-10-11T15:12:44.351Z,52.00
2023-10-11T15:15:12.979Z,52.17
2023-10-11T15:17:40.861Z,53.18
2023-10-11T15:20:09.922Z,53.06
2023-10-11T15:22:37.856Z,53.60
2023-10-11T15:25:06.629Z,54.84
2023-10-11T15:27:35.843Z,54.02
2023-10-11T15:30:08.056Z,54.04
2023-10-11T15:32:36.137Z,53.91
2023-10-11T15:35:06.032Z,54.46
2023-10-11T15:37:33.766Z,54.59
2023-10-11T15:40:02.031Z,55.25
2023-10-11T15:42:31.323Z,55.10
2023-10-11T15:45:00.692Z,56.38
2023-10-11T15:47:36.446Z,57.38
2023-10-11T15:50:05.331Z,58.00
2023-10-11T15:52:33.334Z,57.60
2023-10-11T15:55:01.701Z,56.91
2023-10-11T15:57:29.489Z,58.93
2023-10-11T15:59:57.320Z,60.47
2023-10-11T16:02:26.804Z,63.17
2023-10-11T16:04:56.636Z,61.77
2023-10-11T16:07:26.419Z,61.71
2023-10-11T16:09:54.245Z,62.01
2023-10-11T16:12:23.875Z,65.08
2023-10-11T16:14:52.877Z,66.56
2023-10-11T16:17:20.798Z,67.16
2023-10-11T16:19:50.708Z,67.55
2023-10-11T16:22:18.543Z,68.50
2023-10-11T16:24:46.278Z,67.73
2023-10-11T16:27:15.787Z,68.08
2023-10-11T16:29:43.629Z,68.83
2023-10-11T16:32:11.325Z,69.55
2023-10-11T16:34:40.719Z,69.29
2023-10-11T16:37:09.750Z,69.65
2023-10-11T16:39:38.754Z,69.87
2023-10-11T16:42:06.930Z,70.16
2023-10-11T16:44:36.567Z,70.24
2023-10-11T16:47:10.377Z,70.14
2023-10-11T16:49:39.132Z,70.09
2023-10-11T16:52:07.631Z,70.46
2023-10-11T16:54:38.418Z,69.84
2023-10-11T16:57:07.835Z,70.23
2023-10-11T16:59:52.862Z,70.68
2023-10-11T17:02:21.969Z,70.95
2023-10-11T17:04:50.967Z,70.21
2023-10-11T17:07:19.575Z,71.78
2023-10-11T17:09:49.416Z,72.45
2023-10-11T17:12:17.494Z,72.10
2023-10-11T17:14:45.533Z,71.59
2023-10-11T17:17:13.307Z,71.64
2023-10-11T17:19:41.274Z,72.70
2023-10-11T17:22:10.781Z,72.98
2023-10-11T17:24:41.677Z,73.24
2023-10-11T17:27:10.889Z,73.07
2023-10-11T17:29:39.388Z,71.95
2023-10-11T17:32:07.224Z,72.30
2023-10-11T17:34:35.503Z,72.80
2023-10-11T17:37:03.415Z,73.11
2023-10-11T17:39:31.308Z,73.08
2023-10-11T17:41:59.069Z,72.85
2023-10-11T17:44:28.150Z,72.16
2023-10-11T17:46:58.590Z,72.49
2023-10-11T17:49:26.706Z,71.88
2023-10-11T17:51:54.549Z,71.97
2023-10-11T17:54:22.693Z,72.64
2023-10-11T17:56:54.945Z,72.49
2023-10-11T17:59:22.710Z,72.69
2023-10-11T18:01:52.825Z,72.21
2023-10-11T18:04:21.468Z,72.39
2023-10-11T18:06:49.608Z,73.17
2023-10-11T18:09:18.067Z,72.62
2023-10-11T18:11:46.114Z,73.22
2023-10-11T18:14:14.552Z,71.69
2023-10-11T18:16:42.405Z,72.27
2023-10-11T18:19:14.972Z,72.58
2023-10-11T18:21:45.209Z,72.60
2023-10-11T18:24:16.161Z,71.75
2023-10-11T18:26:44.713Z,73.35
2023-10-11T18:29:13.182Z,73.35
2023-10-11T18:31:41.067Z,72.33
2023-10-11T18:34:09.244Z,71.25
2023-10-11T18:36:39.964Z,70.37
2023-10-11T18:39:08.860Z,71.30
2023-10-11T18:41:37.260Z,71.13
2023-10-11T18:44:06.258Z,71.48
2023-10-11T18:46:34.235Z,71.12
2023-10-11T18:49:02.372Z,72.00
2023-10-11T18:51:30.337Z,72.17
2023-10-11T18:53:59.660Z,72.43
2023-10-11T18:56:27.595Z,72.68
2023-10-11T18:58:56.329Z,72.78
2023-10-11T19:01:24.527Z,72.78
2023-10-11T19:03:52.793Z,73.41
2023-10-11T19:06:20.870Z,72.42
2023-10-11T19:08:49.674Z,71.58
2023-10-11T19:11:20.994Z,71.77
2023-10-11T19:13:49.678Z,70.79
2023-10-11T19:16:25.108Z,70.84
2023-10-11T19:18:54.716Z,71.87
2023-10-11T19:21:22.715Z,72.21
2023-10-11T19:23:50.913Z,71.58
2023-10-11T19:26:21.119Z,71.43
2023-10-11T19:28:49.483Z,71.64
2023-10-11T19:31:17.996Z,72.19
2023-10-11T19:33:46.081Z,71.77
2023-10-11T19:36:17.393Z,71.68
2023-10-11T19:38:46.296Z,72.05
2023-10-11T19:41:14.549Z,73.46
2023-10-11T19:43:45.386Z,73.88
2023-10-11T19:46:14.740Z,73.44
2023-10-11T19:48:43.484Z,74.16
2023-10-11T19:51:12.617Z,73.92
2023-10-11T19:53:41.649Z,74.16
2023-10-11T19:56:18.917Z,74.21
2023-10-11T19:58:49.108Z,74.34
2023-10-11T20:01:19.598Z,74.43
2023-10-11T20:03:53.399Z,74.88
2023-10-11T20:06:23.687Z,74.70
2023-10-11T20:08:53.271Z,75.96
2023-10-11T20:11:22.204Z,76.60
2023-10-11T20:13:54.284Z,76.17
2023-10-11T20:16:22.374Z,76.56
2023-10-11T20:18:51.195Z,76.06
2023-10-11T20:21:20.703Z,75.83
2023-10-11T20:23:50.042Z,76.38
2023-10-11T20:26:21.403Z,76.60
2023-10-11T20:28:52.866Z,77.14
2023-10-11T20:31:21.374Z,77.48
2023-10-11T20:33:50.995Z,77.45
2023-10-11T20:36:19.614Z,78.33
2023-10-11T20:38:49.030Z,78.51
2023-10-11T20:41:19.647Z,78.16
2023-10-11T20:43:48.467Z,78.13
2023-10-11T20:46:18.873Z,78.05
2023-10-11T20:48:46.769Z,79.24
2023-10-11T20:51:17.032Z,79.32
2023-10-11T20:53:46.200Z,80.25
2023-10-11T20:56:14.318Z,80.75
2023-10-11T20:58:56.955Z,80.03
2023-10-11T21:01:27.749Z,80.38
2023-10-11T21:03:57.543Z,79.86
2023-10-11T21:06:26.371Z,79.31
2023-10-11T21:08:54.236Z,78.97
2023-10-11T21:11:22.684Z,79.81
2023-10-11T21:13:50.698Z,80.72
2023-10-11T21:16:18.561Z,81.56
2023-10-11T21:18:47.841Z,81.79
2023-10-11T21:21:19.399Z,82.41
2023-10-11T21:23:47.786Z,82.38
2023-10-11T21:26:17.118Z,82.01
2023-10-11T21:28:53.526Z,82.00
2023-10-11T21:31:22.498Z,82.58
2023-10-11T21:33:52.099Z,81.73
2023-10-11T21:36:20.088Z,82.48
2023-10-11T21:38:48.412Z,83.05
2023-10-11T21:41:16.578Z,83.17
2023-10-11T21:43:45.053Z,84.13
2023-10-11T21:46:14.125Z,85.24
2023-10-11T21:48:42.951Z,85.14
2023-10-11T21:51:25.794Z,85.43
2023-10-11T21:53:55.305Z,86.51
2023-10-11T21:56:23.040Z,87.39
2023-10-11T21:58:50.984Z,88.55
2023-10-11T22:01:24.526Z,88.94
2023-10-11T22:03:53.301Z,89.15
2023-10-11T22:06:22.707Z,89.88
2023-10-11T22:08:49.818Z,88.99
2023-10-11T22:11:17.676Z,90.33
2023-10-11T22:13:46.687Z,89.82
2023-10-11T22:16:15.360Z,90.09
2023-10-11T22:18:43.852Z,90.65
2023-10-11T22:21:13.764Z,90.91
2023-10-11T22:23:45.247Z,91.38
2023-10-11T22:26:15.386Z,92.04
2023-10-11T22:28:45.194Z,92.07
2023-10-11T22:31:13.708Z,91.68
2023-10-11T22:33:44.330Z,90.74
2023-10-11T22:36:16.554Z,89.82
2023-10-11T22:38:47.174Z,88.15
2023-10-11T22:41:18.866Z,86.24
2023-10-11T22:43:47.383Z,86.14
2023-10-11T22:46:15.728Z,87.78
2023-10-11T22:48:46.166Z,88.67
2023-10-11T22:51:18.664Z,89.14
2023-10-11T22:56:21.365Z,89.60
2023-10-11T22:58:51.975Z,89.98
2023-10-11T23:01:20.884Z,90.49
2023-10-11T23:03:48.816Z,90.53
2023-10-11T23:06:17.202Z,91.10
2023-10-11T23:08:47.130Z,90.98
2023-10-11T23:11:19.982Z,91.38
2023-10-11T23:13:49.518Z,92.51
2023-10-11T23:16:19.036Z,92.08
2023-10-11T23:18:47.714Z,91.63
2023-10-11T23:21:21.822Z,93.95
2023-10-11T23:23:53.253Z,93.82
2023-10-11T23:26:27.167Z,94.22
2023-10-11T23:28:57.974Z,95.30
2023-10-11T23:31:27.593Z,94.87
2023-10-11T23:33:57.841Z,94.18
2023-10-11T23:36:36.010Z,94.44
2023-10-11T23:39:07.834Z,94.72
2023-10-11T23:41:46.682Z,95.75
2023-10-11T23:44:23.661Z,96.00
2023-10-11T23:46:59.690Z,95.23
2023-10-11T23:49:41.746Z,95.18
2023-10-11T23:52:15.065Z,94.69
2023-10-11T23:54:44.493Z,94.64
2023-10-11T23:57:23.081Z,95.24
2023-10-11T23:59:51.269Z,95.59
